Time;durP1;ratioP1;P1;durP2;ratioP2;P2;SDS_P1;SDS_P2;PMS_P1;PMS_P2;Temp;Humidity;BMP_temperature;BMP_pressure;BME280_temperature;BME280_humidity;BME280_pressure;Samples;Min_cycle;Max_cycle;Signal;HPM_P1;HPM_P2
2021/01/10 00:00:30;;;;;;;17.50;7.57;;;1.20;99.90;;;;;;5088802;28;20070;-70
2021/01/10 00:02:57;;;;;;;16.37;8.30;;;1.30;99.90;;;;;;5085332;28;20052;-70
2021/01/10 00:05:26;;;;;;;18.90;8.77;;;1.30;99.90;;;;;;5086266;28;20068;-70
2021/01/10 00:07:52;;;;;;;18.60;9.30;;;1.30;99.90;;;;;;5083396;28;20078;-70
2021/01/10 00:10:20;;;;;;;15.80;8.73;;;1.40;99.90;;;;;;5101749;28;20514;-70
2021/01/10 00:12:46;;;;;;;17.77;8.57;;;1.30;99.90;;;;;;5099358;28;20046;-70
2021/01/10 00:15:15;;;;;;;16.30;8.03;;;1.20;99.90;;;;;;5096347;28;20054;-70
2021/01/10 00:17:43;;;;;;;18.30;9.70;;;1.20;99.90;;;;;;5096565;28;20052;-70
2021/01/10 00:20:11;;;;;;;20.43;9.40;;;1.10;99.90;;;;;;5093578;28;20054;-72
2021/01/10 00:22:39;;;;;;;17.47;8.97;;;1.10;99.90;;;;;;5102513;28;20388;-70
2021/01/10 00:25:07;;;;;;;17.77;8.93;;;0.90;99.90;;;;;;5095939;28;20203;-70
2021/01/10 00:27:34;;;;;;;17.03;8.30;;;0.90;99.90;;;;;;5097080;28;20317;-70
2021/01/10 00:30:01;;;;;;;20.23;9.43;;;0.80;99.90;;;;;;5098919;28;20100;-69
2021/01/10 00:32:27;;;;;;;20.30;9.37;;;0.70;99.90;;;;;;5094622;28;20514;-70
2021/01/10 00:34:54;;;;;;;20.17;9.03;;;0.60;99.90;;;;;;5096592;28;20979;-70
2021/01/10 00:37:22;;;;;;;20.00;10.00;;;0.60;99.90;;;;;;5092633;28;20059;-68
2021/01/10 00:39:50;;;;;;;19.73;9.60;;;0.60;99.90;;;;;;5091249;28;20826;-71
2021/01/10 00:42:18;;;;;;;20.53;9.90;;;0.50;99.90;;;;;;5088063;28;20047;-69
2021/01/10 00:44:46;;;;;;;19.43;9.77;;;0.50;99.90;;;;;;5085057;28;20119;-69
2021/01/10 00:47:13;;;;;;;19.13;9.47;;;0.50;99.90;;;;;;5084681;28;20134;-68
2021/01/10 00:49:40;;;;;;;17.03;8.07;;;0.60;99.90;;;;;;5091507;28;20043;-68
2021/01/10 00:52:07;;;;;;;15.70;7.53;;;0.70;99.90;;;;;;5097932;28;20053;-68
2021/01/10 00:54:34;;;;;;;18.40;8.17;;;0.60;99.90;;;;;;5087529;28;20089;-70
2021/01/10 00:57:01;;;;;;;16.33;7.90;;;0.50;99.90;;;;;;5096000;28;20054;-70
2021/01/10 00:59:28;;;;;;;19.40;8.20;;;0.50;99.90;;;;;;5092588;28;20087;-70
2021/01/10 01:01:55;;;;;;;18.20;8.70;;;0.40;99.90;;;;;;5100406;28;20402;-70
2021/01/10 01:04:22;;;;;;;18.53;7.97;;;0.30;99.90;;;;;;5091202;28;20079;-70
2021/01/10 01:06:49;;;;;;;17.87;7.80;;;0.40;99.90;;;;;;5091983;28;20048;-70
2021/01/10 01:09:16;;;;;;;17.67;8.27;;;0.40;99.90;;;;;;5087392;28;20097;-71
2021/01/10 01:11:43;;;;;;;19.27;8.70;;;0.50;99.90;;;;;;5090590;28;20044;-71
2021/01/10 01:14:11;;;;;;;17.80;8.10;;;0.60;99.90;;;;;;5092231;28;20076;-71
2021/01/10 01:16:40;;;;;;;17.17;8.43;;;0.30;99.90;;;;;;5093950;28;20055;-71
2021/01/10 01:19:07;;;;;;;15.70;8.27;;;0.20;99.90;;;;;;5093069;28;20103;-71
2021/01/10 01:21:34;;;;;;;18.50;9.13;;;0.10;99.90;;;;;;5088309;28;20063;-71
2021/01/10 01:24:01;;;;;;;20.17;9.50;;;-0.10;99.90;;;;;;5094956;28;20044;-71
2021/01/10 01:26:27;;;;;;;18.70;9.20;;;-0.20;99.90;;;;;;5092828;28;20036;-71
2021/01/10 01:28:54;;;;;;;20.87;9.23;;;-0.30;99.90;;;;;;5092460;28;20043;-71
2021/01/10 01:31:22;;;;;;;20.80;9.17;;;-0.40;99.90;;;;;;5093477;28;20052;-71
2021/01/10 01:33:50;;;;;;;25.20;10.37;;;-0.40;99.90;;;;;;5096080;28;20051;-71
2021/01/10 01:36:18;;;;;;;44.80;14.83;;;-0.50;99.90;;;;;;5095599;28;20048;-71
2021/01/10 01:38:45;;;;;;;51.17;17.50;;;-0.40;99.90;;;;;;5095882;28;20055;-71
2021/01/10 01:41:13;;;;;;;50.90;17.00;;;-0.40;99.90;;;;;;5091276;28;20055;-71
2021/01/10 01:43:40;;;;;;;47.73;16.00;;;-0.40;99.90;;;;;;5096605;28;20063;-71
2021/01/10 01:46:08;;;;;;;31.70;12.77;;;-0.30;99.90;;;;;;5099301;28;20044;-71
2021/01/10 01:48:37;;;;;;;33.60;13.67;;;-0.40;99.90;;;;;;5094628;28;20089;-71
2021/01/10 01:51:04;;;;;;;42.70;17.93;;;-0.50;99.90;;;;;;5094910;28;20035;-71
2021/01/10 01:53:31;;;;;;;43.43;15.73;;;-0.40;99.90;;;;;;5096639;28;20050;-70
2021/01/10 01:55:59;;;;;;;42.47;16.83;;;-0.50;99.90;;;;;;5094593;28;20044;-71
2021/01/10 01:58:26;;;;;;;32.63;12.37;;;-0.50;99.90;;;;;;5093202;28;20139;-71
2021/01/10 02:00:54;;;;;;;25.97;11.93;;;-0.50;99.90;;;;;;5092719;28;20395;-71
2021/01/10 02:03:27;;;;;;;29.63;12.27;;;-0.60;99.90;;;;;;5085223;28;20071;-71
2021/01/10 02:05:59;;;;;;;29.30;11.90;;;-0.70;99.90;;;;;;5084342;28;20097;-70
2021/01/10 02:08:31;;;;;;;26.13;11.70;;;-0.80;99.90;;;;;;5080647;28;20123;-70
2021/01/10 02:11:00;;;;;;;27.67;10.60;;;-0.90;99.90;;;;;;5078717;28;20132;-70
2021/01/10 02:13:30;;;;;;;23.53;9.63;;;-0.90;99.90;;;;;;5084111;28;20495;-70
2021/01/10 02:15:58;;;;;;;22.37;10.00;;;-0.90;99.90;;;;;;5085526;28;20052;-70
2021/01/10 02:18:26;;;;;;;24.00;9.77;;;-0.90;99.90;;;;;;5088156;28;20067;-70
2021/01/10 02:20:54;;;;;;;22.13;9.83;;;-0.90;99.90;;;;;;5095542;28;20043;-70
2021/01/10 02:23:25;;;;;;;19.83;8.90;;;-1.00;99.90;;;;;;5085317;28;20048;-71
2021/01/10 02:25:54;;;;;;;22.30;10.00;;;-1.00;99.90;;;;;;5086116;28;20484;-70
2021/01/10 02:28:22;;;;;;;23.33;10.20;;;-1.00;99.90;;;;;;5082728;28;20059;-70
2021/01/10 02:30:51;;;;;;;24.57;11.60;;;-1.00;99.90;;;;;;5095001;28;20044;-70
2021/01/10 02:35:55;;;;;;;27.60;10.53;;;-0.90;99.90;;;;;;5778560;22;20090;-70
2021/01/10 02:38:35;;;;;;;25.70;10.97;;;-0.90;99.90;;;;;;5087296;28;20105;-70
2021/01/10 02:41:14;;;;;;;25.17;10.67;;;-0.80;99.90;;;;;;5082303;28;20048;-70
2021/01/10 02:43:46;;;;;;;22.90;10.63;;;-0.90;99.90;;;;;;5084346;28;20055;-70
2021/01/10 02:46:14;;;;;;;23.50;10.37;;;-0.80;99.90;;;;;;5082842;28;20048;-70
2021/01/10 02:48:41;;;;;;;24.80;11.17;;;-0.80;99.90;;;;;;5079266;28;20052;-70
2021/01/10 02:51:09;;;;;;;22.90;10.67;;;-0.80;99.90;;;;;;5082719;28;20480;-70
2021/01/10 02:53:36;;;;;;;23.53;9.90;;;-0.70;99.90;;;;;;5081728;28;20048;-70
2021/01/10 02:56:06;;;;;;;24.30;9.97;;;-0.60;99.90;;;;;;5083418;28;20063;-70
2021/01/10 02:58:38;;;;;;;22.87;10.37;;;-0.70;99.90;;;;;;5081011;28;20048;-70
2021/01/10 03:01:07;;;;;;;23.33;10.07;;;-0.60;99.90;;;;;;5083001;28;20050;-70
2021/01/10 03:03:34;;;;;;;24.73;10.10;;;-0.60;99.90;;;;;;5083446;28;20060;-70
2021/01/10 03:06:02;;;;;;;20.00;9.60;;;-0.50;99.90;;;;;;5084871;28;20051;-70
2021/01/10 03:08:29;;;;;;;21.07;9.53;;;-0.40;99.90;;;;;;5082900;28;20497;-70
2021/01/10 03:10:56;;;;;;;20.27;9.23;;;-0.30;99.90;;;;;;5086579;28;20082;-70
2021/01/10 03:13:23;;;;;;;24.10;10.57;;;-0.30;99.90;;;;;;5087881;28;20528;-70
2021/01/10 03:15:50;;;;;;;24.50;11.60;;;-0.30;99.90;;;;;;5088567;28;20044;-70
2021/01/10 03:18:19;;;;;;;22.97;10.47;;;-0.30;99.90;;;;;;5083634;28;20113;-70
2021/01/10 03:20:46;;;;;;;21.80;10.23;;;-0.30;99.90;;;;;;5086099;28;20044;-70
2021/01/10 03:23:13;;;;;;;21.93;10.30;;;-0.20;99.90;;;;;;5087693;28;20052;-70
2021/01/10 03:25:40;;;;;;;26.50;11.43;;;-0.20;99.90;;;;;;5085743;28;20047;-70
2021/01/10 03:28:07;;;;;;;22.97;9.83;;;-0.20;99.90;;;;;;5087853;28;20055;-70
2021/01/10 03:30:35;;;;;;;21.57;11.37;;;-0.20;99.90;;;;;;5089553;28;20047;-70
2021/01/10 03:33:02;;;;;;;22.53;10.07;;;-0.20;99.90;;;;;;5087796;28;20055;-70
2021/01/10 03:35:30;;;;;;;21.83;10.17;;;-0.10;99.90;;;;;;5087508;28;20052;-70
2021/01/10 03:37:57;;;;;;;23.97;10.30;;;-0.10;99.90;;;;;;5086427;28;20051;-70
2021/01/10 03:40:23;;;;;;;22.80;10.10;;;-0.10;99.90;;;;;;5087883;28;20090;-70
2021/01/10 03:42:50;;;;;;;20.33;9.37;;;-0.10;99.90;;;;;;5087141;28;20516;-70
2021/01/10 03:45:17;;;;;;;25.30;10.80;;;-0.10;99.90;;;;;;5087032;28;20056;-70
2021/01/10 03:47:45;;;;;;;22.17;9.93;;;-0.10;99.90;;;;;;5086252;28;20056;-70
2021/01/10 03:50:12;;;;;;;22.77;10.53;;;-0.10;99.90;;;;;;5078915;28;20048;-70
2021/01/10 03:52:38;;;;;;;22.90;10.63;;;-0.10;99.90;;;;;;5087913;28;20048;-70
2021/01/10 03:55:06;;;;;;;22.93;10.57;;;-0.10;99.90;;;;;;5088133;28;20478;-70
2021/01/10 03:57:33;;;;;;;26.03;10.80;;;-0.10;99.90;;;;;;5086349;28;20453;-70
2021/01/10 03:59:59;;;;;;;72.10;27.67;;;-0.10;99.90;;;;;;5087257;28;20055;-70
2021/01/10 04:02:26;;;;;;;46.50;22.33;;;-0.10;99.90;;;;;;5088122;28;20043;-70
2021/01/10 04:04:53;;;;;;;32.80;14.43;;;-0.20;99.90;;;;;;5087263;28;20409;-70
2021/01/10 04:07:20;;;;;;;24.43;11.33;;;-0.10;99.90;;;;;;5087945;28;20048;-70
2021/01/10 04:09:46;;;;;;;23.13;10.17;;;-0.20;99.90;;;;;;5086706;28;20044;-70
2021/01/10 04:12:13;;;;;;;25.23;10.40;;;-0.20;99.90;;;;;;5087218;28;20059;-70
2021/01/10 04:14:39;;;;;;;24.87;11.03;;;-0.10;99.90;;;;;;5087215;28;20102;-70
2021/01/10 04:17:06;;;;;;;23.23;11.27;;;-0.10;99.90;;;;;;5087818;28;20044;-70
2021/01/10 04:19:33;;;;;;;21.27;10.80;;;-0.10;99.90;;;;;;5077285;28;20106;-70
2021/01/10 04:22:00;;;;;;;24.40;11.30;;;-0.10;99.90;;;;;;5086790;28;20049;-70
2021/01/10 04:24:27;;;;;;;22.17;10.47;;;-0.10;99.90;;;;;;5087875;28;20412;-70
2021/01/10 04:26:53;;;;;;;25.67;11.20;;;-0.10;99.90;;;;;;5086702;28;20123;-70
2021/01/10 04:29:20;;;;;;;22.70;10.50;;;-0.10;99.90;;;;;;5086153;28;20052;-70
2021/01/10 04:31:47;;;;;;;22.83;10.60;;;-0.10;99.90;;;;;;5086724;28;20048;-70
2021/01/10 04:34:13;;;;;;;21.83;10.70;;;0.00;99.90;;;;;;5087379;28;20044;-70
2021/01/10 04:36:40;;;;;;;23.50;10.97;;;0.00;99.90;;;;;;5086659;28;20454;-70
2021/01/10 04:39:07;;;;;;;22.83;10.70;;;0.00;99.90;;;;;;5086006;28;20055;-71
2021/01/10 04:41:34;;;;;;;21.73;9.90;;;0.00;99.90;;;;;;5087242;28;20048;-70
2021/01/10 04:44:01;;;;;;;22.67;9.87;;;-0.10;99.90;;;;;;5086471;28;20495;-70
2021/01/10 04:46:29;;;;;;;23.83;10.03;;;-0.10;99.90;;;;;;5086933;28;20044;-70
2021/01/10 04:48:57;;;;;;;22.43;10.20;;;-0.10;99.90;;;;;;5078379;28;20511;-70
2021/01/10 04:51:26;;;;;;;21.73;9.60;;;0.00;99.90;;;;;;5066548;28;20045;-70
2021/01/10 04:53:56;;;;;;;25.70;10.90;;;0.00;99.90;;;;;;5065989;28;20053;-70
2021/01/10 04:56:28;;;;;;;22.37;9.67;;;0.00;99.90;;;;;;5066615;28;20458;-70
2021/01/10 04:58:56;;;;;;;22.37;9.40;;;0.00;99.90;;;;;;5064411;28;20048;-70
2021/01/10 05:01:25;;;;;;;19.47;8.73;;;0.00;99.90;;;;;;5066132;28;20049;-70
2021/01/10 05:03:54;;;;;;;19.27;9.17;;;0.00;99.90;;;;;;5066533;28;20052;-70
2021/01/10 05:06:21;;;;;;;23.53;9.63;;;0.00;99.90;;;;;;5065508;28;20056;-70
2021/01/10 05:08:48;;;;;;;20.77;9.87;;;0.10;99.90;;;;;;5065427;28;20053;-70
2021/01/10 05:11:16;;;;;;;24.43;10.10;;;0.10;99.90;;;;;;5065357;28;20060;-70
2021/01/10 05:13:44;;;;;;;22.77;9.50;;;0.10;99.90;;;;;;5065032;28;20056;-71
2021/01/10 05:16:17;;;;;;;20.37;10.00;;;0.10;99.90;;;;;;5065091;28;20103;-71
2021/01/10 05:18:51;;;;;;;23.00;10.13;;;0.10;99.90;;;;;;5062639;28;20094;-70
2021/01/10 05:21:19;;;;;;;23.40;10.13;;;0.10;99.90;;;;;;5065718;28;20048;-70
2021/01/10 05:23:53;;;;;;;22.57;9.73;;;0.10;99.90;;;;;;5064952;28;20482;-70
2021/01/10 05:26:20;;;;;;;22.63;10.13;;;0.10;99.90;;;;;;5066097;28;20052;-70
2021/01/10 05:28:50;;;;;;;21.97;10.57;;;0.10;99.90;;;;;;5064339;28;20048;-71
2021/01/10 05:31:33;;;;;;;25.10;11.07;;;0.10;99.90;;;;;;5067817;28;20135;-70
2021/01/10 05:33:59;;;;;;;21.17;9.80;;;0.10;99.90;;;;;;5064241;28;20063;-70
2021/01/10 05:36:30;;;;;;;19.47;9.67;;;0.20;99.90;;;;;;5065568;28;20071;-70
2021/01/10 05:39:13;;;;;;;23.83;9.97;;;0.20;99.90;;;;;;5070036;28;20050;-70
2021/01/10 05:41:42;;;;;;;20.73;9.17;;;0.20;99.90;;;;;;5071392;28;20049;-70
2021/01/10 05:44:10;;;;;;;20.83;9.93;;;0.20;99.90;;;;;;5082549;28;20048;-70
2021/01/10 05:46:36;;;;;;;24.37;10.03;;;0.20;99.90;;;;;;5084677;28;20048;-70
2021/01/10 05:49:03;;;;;;;24.23;10.07;;;0.20;99.90;;;;;;5084622;28;20048;-70
2021/01/10 05:51:30;;;;;;;26.73;11.03;;;0.20;99.90;;;;;;5085501;28;20054;-70
2021/01/10 05:53:57;;;;;;;19.73;9.53;;;0.20;99.90;;;;;;5085965;28;20048;-70
2021/01/10 05:56:24;;;;;;;23.03;10.50;;;0.10;99.90;;;;;;5085401;28;20082;-70
2021/01/10 05:58:57;;;;;;;22.17;10.43;;;0.20;99.90;;;;;;5084915;28;20048;-70
2021/01/10 06:01:25;;;;;;;21.33;10.17;;;0.10;99.90;;;;;;5085924;28;20411;-70
2021/01/10 06:03:52;;;;;;;24.43;10.17;;;0.10;99.90;;;;;;5085546;28;20499;-70
2021/01/10 06:06:19;;;;;;;26.03;10.57;;;0.10;99.90;;;;;;5085922;28;20436;-71
2021/01/10 06:08:46;;;;;;;22.37;10.30;;;0.10;99.90;;;;;;5084012;28;20055;-71
2021/01/10 06:11:27;;;;;;;22.43;10.07;;;0.10;99.90;;;;;;5076581;28;20718;-71
2021/01/10 06:13:56;;;;;;;23.77;10.57;;;0.20;99.90;;;;;;5084877;28;20044;-70
2021/01/10 06:16:25;;;;;;;21.70;9.63;;;0.20;99.90;;;;;;5086137;28;20056;-70
2021/01/10 06:18:55;;;;;;;27.03;10.00;;;0.20;99.90;;;;;;5084383;28;20052;-70
2021/01/10 06:21:25;;;;;;;22.90;9.83;;;0.20;99.90;;;;;;5084754;28;20081;-70
2021/01/10 06:23:53;;;;;;;21.17;10.13;;;0.20;99.90;;;;;;5085231;28;20095;-71
2021/01/10 06:26:22;;;;;;;21.10;10.23;;;0.20;99.90;;;;;;5084766;28;20056;-70
2021/01/10 06:28:54;;;;;;;22.33;9.40;;;0.20;99.90;;;;;;5084424;28;20102;-70
2021/01/10 06:31:30;;;;;;;21.07;10.10;;;0.20;99.90;;;;;;5085226;28;20072;-71
2021/01/10 06:34:02;;;;;;;23.75;10.45;;;0.20;99.90;;;;;;5085521;28;20101;-70
2021/01/10 06:36:31;;;;;;;20.83;10.00;;;0.20;99.90;;;;;;5085125;28;20048;-70
2021/01/10 06:39:10;;;;;;;20.27;9.57;;;0.20;99.90;;;;;;5083691;28;20103;-70
2021/01/10 06:42:15;;;;;;;22.03;10.43;;;0.20;99.90;;;;;;5072233;28;20048;-70
2021/01/10 06:44:47;;;;;;;22.67;10.03;;;0.20;99.90;;;;;;5064769;28;20105;-70
2021/01/10 06:47:22;;;;;;;23.30;10.50;;;0.20;99.90;;;;;;5070770;28;20849;-70
2021/01/10 06:49:50;;;;;;;22.67;10.37;;;0.20;99.90;;;;;;5069979;28;20053;-70
2021/01/10 06:52:20;;;;;;;23.53;10.20;;;0.20;99.90;;;;;;5071484;28;20424;-70
2021/01/10 06:54:48;;;;;;;25.07;11.13;;;0.20;99.90;;;;;;5070797;28;20045;-70
2021/01/10 06:57:15;;;;;;;19.00;9.60;;;0.20;99.90;;;;;;5071464;28;20094;-70
2021/01/10 07:00:02;;;;;;;20.67;10.33;;;0.20;99.90;;;;;;5069866;28;20480;-70
2021/01/10 07:02:30;;;;;;;;;;;0.20;99.90;;;;;;5071951;28;20049;-70
2021/01/10 07:04:58;;;;;;;22.52;10.50;;;0.20;99.90;;;;;;5071773;28;19920;-71
2021/01/10 07:07:49;;;;;;;22.80;10.40;;;0.20;99.90;;;;;;5070488;28;20428;-71
2021/01/10 07:10:26;;;;;;;21.53;9.80;;;0.30;99.90;;;;;;5056620;28;20284;-70
2021/01/10 07:12:52;;;;;;;22.47;10.37;;;0.20;99.90;;;;;;5069096;28;20048;-70
2021/01/10 07:15:29;;;;;;;21.83;10.70;;;0.20;99.90;;;;;;5070023;28;20453;-70
2021/01/10 07:18:08;;;;;;;22.27;10.57;;;0.20;99.90;;;;;;5068115;28;20048;-70
2021/01/10 07:20:40;;;;;;;21.90;9.87;;;0.30;99.90;;;;;;5070102;28;20162;-70
2021/01/10 07:23:26;;;;;;;21.90;9.83;;;0.30;99.90;;;;;;5069969;28;20129;-70
2021/01/10 07:25:53;;;;;;;28.40;11.27;;;0.30;99.90;;;;;;5070675;28;20117;-71
2021/01/10 07:28:43;;;;;;;21.27;9.80;;;0.30;99.90;;;;;;5069049;28;20071;-70
2021/01/10 07:31:16;;;;;;;21.20;10.00;;;0.30;99.90;;;;;;5071636;28;20428;-71
2021/01/10 07:33:44;;;;;;;23.77;10.60;;;0.40;99.90;;;;;;5087795;28;20044;-71
2021/01/10 07:36:11;;;;;;;24.00;10.40;;;0.40;99.90;;;;;;5090687;28;20115;-71
2021/01/10 07:38:40;;;;;;;29.77;11.20;;;0.40;99.90;;;;;;5089278;28;20048;-71
2021/01/10 07:41:33;;;;;;;24.23;10.93;;;0.50;99.90;;;;;;5084941;28;20076;-71
2021/01/10 07:44:00;;;;;;;27.20;10.83;;;0.40;99.90;;;;;;5064044;28;20056;-71
2021/01/10 07:47:00;;;;;;;25.60;10.80;;;0.40;99.90;;;;;;5087971;28;20052;-70
2021/01/10 07:49:30;;;;;;;28.03;11.43;;;0.50;99.90;;;;;;5090341;28;20113;-71
2021/01/10 07:51:56;;;;;;;24.10;10.90;;;0.50;99.90;;;;;;5090101;28;20055;-71
2021/01/10 07:54:53;;;;;;;23.60;11.67;;;0.50;99.90;;;;;;5091839;28;20074;-71
2021/01/10 07:57:33;;;;;;;20.07;9.77;;;0.50;99.90;;;;;;5088612;28;20044;-71
2021/01/10 08:00:22;;;;;;;22.53;10.67;;;0.60;99.90;;;;;;5088287;28;20052;-71
2021/01/10 08:03:06;;;;;;;24.03;10.50;;;0.60;99.90;;;;;;5087816;28;20101;-71
2021/01/10 08:05:35;;;;;;;22.50;10.53;;;0.70;99.90;;;;;;5088040;28;20082;-71
2021/01/10 08:08:04;;;;;;;23.00;10.00;;;0.70;99.90;;;;;;5086054;28;20129;-71
2021/01/10 08:10:46;;;;;;;23.43;10.83;;;0.60;99.90;;;;;;5084761;28;20140;-71
2021/01/10 08:13:31;;;;;;;21.77;9.73;;;0.70;99.90;;;;;;5066349;28;20052;-71
2021/01/10 08:16:00;;;;;;;20.80;10.57;;;0.70;99.90;;;;;;5067331;28;20052;-71
2021/01/10 08:18:33;;;;;;;25.10;11.10;;;0.80;99.90;;;;;;5066013;28;20048;-71
2021/01/10 08:21:02;;;;;;;23.63;10.97;;;0.80;99.90;;;;;;5066172;28;20053;-71
2021/01/10 08:23:31;;;;;;;24.97;11.73;;;0.90;99.90;;;;;;5067675;28;20044;-71
2021/01/10 08:26:03;;;;;;;24.07;12.17;;;1.00;99.90;;;;;;5067308;28;20596;-70
2021/01/10 08:28:33;;;;;;;22.63;11.50;;;1.00;99.90;;;;;;5068035;28;20082;-70
2021/01/10 08:31:02;;;;;;;21.63;10.53;;;1.00;99.90;;;;;;5084311;28;20225;-71
2021/01/10 08:33:29;;;;;;;23.40;11.27;;;1.10;99.90;;;;;;5084949;28;20052;-71
2021/01/10 08:36:13;;;;;;;25.33;12.53;;;1.10;99.90;;;;;;5084952;28;20112;-71
2021/01/10 08:38:49;;;;;;;23.90;11.57;;;1.20;99.90;;;;;;5084466;28;20060;-71
2021/01/10 08:41:28;;;;;;;18.75;10.13;;;1.30;99.90;;;;;;5085129;28;20106;-71
2021/01/10 08:43:56;;;;;;;21.33;10.27;;;1.40;99.90;;;;;;5070534;28;20664;-71
2021/01/10 08:46:23;;;;;;;19.27;9.60;;;1.50;99.90;;;;;;5067468;28;20102;-71
2021/01/10 08:48:50;;;;;;;23.50;10.87;;;1.50;99.90;;;;;;5066845;28;20459;-71
2021/01/10 08:51:34;;;;;;;20.83;10.17;;;1.60;99.90;;;;;;5067228;28;20056;-71
2021/01/10 08:54:02;;;;;;;19.13;9.73;;;1.60;99.90;;;;;;5067530;28;20107;-71
2021/01/10 08:56:31;;;;;;;21.53;10.27;;;1.80;99.90;;;;;;5067841;28;20144;-71
2021/01/10 08:58:58;;;;;;;20.87;10.10;;;1.90;99.90;;;;;;5065361;28;20139;-71
2021/01/10 09:01:26;;;;;;;20.07;9.60;;;1.90;99.90;;;;;;5068056;28;20117;-73
2021/01/10 09:04:03;;;;;;;20.77;10.40;;;1.90;99.90;;;;;;5066878;28;20048;-71
2021/01/10 09:06:47;;;;;;;23.67;11.13;;;2.00;99.90;;;;;;5068187;28;20052;-71
2021/01/10 09:09:26;;;;;;;23.03;10.10;;;1.90;99.90;;;;;;5065163;28;20519;-71
2021/01/10 09:12:01;;;;;;;21.37;10.43;;;1.90;99.90;;;;;;5081180;28;20047;-71
2021/01/10 09:14:32;;;;;;;22.27;10.50;;;2.00;99.90;;;;;;5066621;28;20048;-71
2021/01/10 09:17:01;;;;;;;22.77;10.60;;;1.90;99.90;;;;;;5066285;28;20044;-71
2021/01/10 09:19:32;;;;;;;25.60;10.57;;;2.00;99.90;;;;;;5065282;28;20135;-71
2021/01/10 09:22:00;;;;;;;23.60;11.03;;;2.00;99.90;;;;;;5065892;28;20151;-71
2021/01/10 09:24:32;;;;;;;21.10;10.57;;;1.80;99.90;;;;;;5066970;28;20085;-71
2021/01/10 09:27:09;;;;;;;23.70;11.13;;;1.90;99.90;;;;;;5066759;28;20044;-71
2021/01/10 09:29:36;;;;;;;20.73;10.30;;;1.90;99.90;;;;;;5066332;28;20508;-71
2021/01/10 09:32:03;;;;;;;21.47;10.47;;;2.00;99.90;;;;;;5067727;28;20056;-71
2021/01/10 09:34:29;;;;;;;21.53;10.47;;;2.10;99.90;;;;;;5066409;28;20052;-71
2021/01/10 09:37:05;;;;;;;22.70;11.57;;;1.90;99.90;;;;;;5066710;28;20122;-71
2021/01/10 09:39:42;;;;;;;21.92;11.90;;;2.20;99.90;;;;;;5065629;28;20044;-71
2021/01/10 09:42:09;;;;;;;19.38;10.27;;;2.30;99.90;;;;;;5075105;28;20043;-71
2021/01/10 09:44:35;;;;;;;23.83;12.20;;;2.40;99.90;;;;;;5086338;28;20439;-71
2021/01/10 09:47:02;;;;;;;25.70;11.97;;;2.40;99.90;;;;;;5086973;28;20048;-72
2021/01/10 09:49:30;;;;;;;26.63;13.50;;;2.40;99.90;;;;;;5085694;28;20044;-71
2021/01/10 09:51:58;;;;;;;27.37;13.13;;;2.50;99.90;;;;;;5087082;28;20070;-71
2021/01/10 09:54:27;;;;;;;24.07;12.87;;;2.40;99.90;;;;;;5081075;28;20059;-71
2021/01/10 09:56:54;;;;;;;25.33;13.30;;;2.50;99.90;;;;;;5083223;28;20063;-71
2021/01/10 09:59:35;;;;;;;26.27;13.50;;;2.70;99.90;;;;;;5074159;28;20063;-72
2021/01/10 10:02:08;;;;;;;24.20;11.93;;;2.70;99.90;;;;;;5082288;28;20039;-72
2021/01/10 10:04:35;;;;;;;26.97;12.27;;;2.80;99.90;;;;;;5080491;28;20047;-74
2021/01/10 10:07:03;;;;;;;23.80;12.87;;;3.00;99.90;;;;;;5073454;28;20514;-72
2021/01/10 10:09:53;;;;;;;25.07;12.67;;;3.10;99.90;;;;;;5077860;28;20492;-73
2021/01/10 10:12:21;;;;;;;23.73;12.60;;;3.20;99.90;;;;;;5074303;28;20051;-73
2021/01/10 10:14:53;;;;;;;25.70;13.73;;;3.10;99.90;;;;;;5074759;28;20040;-72
2021/01/10 10:17:22;;;;;;;20.23;11.47;;;3.40;99.90;;;;;;5067514;28;20097;-72
2021/01/10 10:19:48;;;;;;;23.43;12.33;;;3.40;99.90;;;;;;5084417;28;20050;-72
2021/01/10 10:22:26;;;;;;;24.03;11.37;;;3.50;99.90;;;;;;5073634;28;20049;-72
2021/01/10 10:24:54;;;;;;;21.63;11.60;;;3.60;99.90;;;;;;5081587;28;20051;-73
2021/01/10 10:27:21;;;;;;;26.60;13.10;;;3.70;99.90;;;;;;5085460;28;20047;-73
2021/01/10 10:29:47;;;;;;;24.97;12.23;;;3.90;99.90;;;;;;5083676;28;20569;-73
2021/01/10 10:32:14;;;;;;;22.07;12.47;;;4.00;99.90;;;;;;5073243;28;20048;-72
2021/01/10 10:34:44;;;;;;;20.60;11.40;;;4.10;99.90;;;;;;5064377;28;20182;-73
2021/01/10 10:37:10;;;;;;;21.93;11.43;;;4.20;99.90;;;;;;5065850;28;20052;-72
2021/01/10 10:39:37;;;;;;;21.33;11.33;;;4.50;99.90;;;;;;5079271;28;20053;-74
2021/01/10 10:42:05;;;;;;;22.55;11.05;;;5.90;99.90;;;;;;5075191;28;20527;-74
2021/01/10 10:44:32;;;;;;;21.38;11.40;;;6.50;99.90;;;;;;5074019;28;20048;-75
2021/01/10 10:46:58;;;;;;;20.33;11.45;;;7.80;99.90;;;;;;5082046;28;20048;-75
2021/01/10 10:49:25;;;;;;;19.85;11.70;;;8.30;99.90;;;;;;5082647;28;20052;-75
2021/01/10 10:51:52;;;;;;;18.60;10.90;;;9.00;99.90;;;;;;5082471;28;20059;-75
2021/01/10 10:54:18;;;;;;;18.98;11.10;;;8.50;99.90;;;;;;5082672;28;20055;-75
2021/01/10 10:56:46;;;;;;;18.98;11.02;;;8.60;99.90;;;;;;5082091;28;20059;-75
2021/01/10 10:59:14;;;;;;;16.38;10.07;;;9.50;99.90;;;;;;5077323;28;20052;-73
2021/01/10 11:01:41;;;;;;;15.82;9.25;;;9.60;99.90;;;;;;5085045;28;20063;-72
2021/01/10 11:04:08;;;;;;;16.75;9.75;;;10.60;99.90;;;;;;5085085;28;20048;-72
2021/01/10 11:06:35;;;;;;;18.38;11.15;;;11.00;99.90;;;;;;5086271;28;20048;-72
2021/01/10 11:09:04;;;;;;;17.15;10.35;;;10.50;99.90;;;;;;5087436;28;20082;-73
2021/01/10 11:11:40;;;;;;;19.23;9.80;;;10.60;99.90;;;;;;5081993;28;20051;-73
2021/01/10 11:14:08;;;;;;;17.00;9.32;;;11.10;99.90;;;;;;5084324;28;20044;-72
2021/01/10 11:16:38;;;;;;;17.90;9.85;;;11.10;99.90;;;;;;5085986;28;20080;-72
2021/01/10 11:19:05;;;;;;;16.92;9.55;;;11.80;99.90;;;;;;5084987;28;20067;-72
2021/01/10 11:21:33;;;;;;;16.48;10.43;;;13.20;99.90;;;;;;5077754;28;20048;-72
2021/01/10 11:24:00;;;;;;;14.55;9.77;;;14.40;99.90;;;;;;5059908;28;20048;-73
2021/01/10 11:26:28;;;;;;;14.98;10.27;;;15.00;95.40;;;;;;5071724;28;20054;-74
2021/01/10 11:28:54;;;;;;;16.23;10.40;;;15.60;91.50;;;;;;5071995;28;20044;-73
2021/01/10 11:31:22;;;;;;;16.88;11.15;;;15.80;89.90;;;;;;5076470;28;20052;-75
2021/01/10 11:33:50;;;;;;;16.63;11.18;;;16.10;84.60;;;;;;5077051;28;20056;-74
2021/01/10 11:36:18;;;;;;;15.57;10.32;;;16.60;80.80;;;;;;5075526;28;20054;-74
2021/01/10 11:38:47;;;;;;;18.00;10.82;;;16.90;76.60;;;;;;5072054;28;20079;-74
2021/01/10 11:41:14;;;;;;;15.45;10.32;;;17.20;74.00;;;;;;5070230;28;20449;-71
2021/01/10 11:43:41;;;;;;;16.73;10.90;;;17.00;71.60;;;;;;5072019;28;20040;-72
2021/01/10 11:46:08;;;;;;;16.52;11.60;;;16.20;73.60;;;;;;5072577;28;20040;-73
2021/01/10 11:48:36;;;;;;;19.38;12.40;;;14.60;78.80;;;;;;5082666;28;20446;-73
2021/01/10 11:51:05;;;;;;;17.55;11.73;;;13.20;83.90;;;;;;5080480;28;20074;-74
2021/01/10 11:53:32;;;;;;;20.88;12.70;;;11.90;90.60;;;;;;5086577;28;20466;-73
2021/01/10 11:55:59;;;;;;;19.98;12.95;;;10.60;95.70;;;;;;5088148;28;20560;-73
2021/01/10 11:58:26;;;;;;;20.58;13.00;;;10.00;99.90;;;;;;5087562;28;20048;-73
2021/01/10 12:00:53;;;;;;;19.35;12.45;;;10.00;99.90;;;;;;5086362;28;20083;-72
2021/01/10 12:03:20;;;;;;;18.52;11.30;;;10.40;99.90;;;;;;5085560;28;20055;-72
2021/01/10 12:05:48;;;;;;;16.83;10.88;;;11.30;99.90;;;;;;5079402;28;20051;-72
2021/01/10 12:08:16;;;;;;;19.80;11.18;;;12.10;98.40;;;;;;5080485;28;20047;-72
2021/01/10 12:10:43;;;;;;;17.30;10.85;;;12.40;96.60;;;;;;5082551;28;20045;-72
2021/01/10 12:13:09;;;;;;;16.67;10.13;;;12.20;96.90;;;;;;5082283;28;20560;-72
2021/01/10 12:15:36;;;;;;;16.75;10.05;;;12.70;95.60;;;;;;5075792;28;20404;-72
2021/01/10 12:18:04;;;;;;;16.48;10.50;;;12.90;95.30;;;;;;5079693;28;20048;-72
2021/01/10 12:20:31;;;;;;;16.63;10.50;;;12.60;94.80;;;;;;5079898;28;20408;-74
2021/01/10 12:22:58;;;;;;;18.42;10.38;;;12.40;94.70;;;;;;5066923;28;20607;-73
2021/01/10 12:25:25;;;;;;;17.23;10.77;;;12.10;94.20;;;;;;5069861;28;20041;-72
2021/01/10 12:27:52;;;;;;;18.77;10.13;;;11.90;95.60;;;;;;5077551;28;20102;-72
2021/01/10 12:30:20;;;;;;;15.80;9.60;;;11.80;96.30;;;;;;5083860;28;20058;-73
2021/01/10 12:32:47;;;;;;;15.57;10.23;;;12.00;93.80;;;;;;5073736;28;20245;-70
2021/01/10 12:35:15;;;;;;;16.38;10.07;;;12.20;96.30;;;;;;5068801;28;20057;-72
2021/01/10 12:37:43;;;;;;;16.45;10.43;;;12.20;94.60;;;;;;5070063;28;20083;-70
2021/01/10 12:40:11;;;;;;;19.20;10.30;;;12.70;94.10;;;;;;5072655;28;20044;-70
2021/01/10 12:42:39;;;;;;;18.63;10.93;;;13.20;93.20;;;;;;5075376;28;20098;-74
2021/01/10 12:50:55;;;;;;;15.77;8.55;;;14.30;89.10;;;;;;5058891;28;20542;-69
2021/01/10 12:53:21;;;;;;;15.52;9.23;;;14.30;86.90;;;;;;5059330;28;20071;-69
2021/01/10 12:55:51;;;;;;;15.60;9.15;;;14.30;85.60;;;;;;5061346;28;20156;-69